createdAt,value
2023-04-20T00:00:21.569Z,80.02
2023-04-20T00:01:21.564Z,79.91
2023-04-20T00:02:21.808Z,79.81
2023-04-20T00:03:22.029Z,79.81
2023-04-20T00:04:21.521Z,79.91
2023-04-20T00:05:21.542Z,79.91
2023-04-20T00:06:21.519Z,79.81
2023-04-20T00:07:21.487Z,79.71
2023-04-20T00:08:21.478Z,79.81
2023-04-20T00:09:21.459Z,79.71
2023-04-20T00:10:21.460Z,79.71
2023-04-20T00:11:21.462Z,79.91
2023-04-20T00:12:21.427Z,79.71
2023-04-20T00:13:21.400Z,79.71
2023-04-20T00:14:21.389Z,79.60
2023-04-20T00:15:21.397Z,79.71
2023-04-20T00:16:21.388Z,79.60
2023-04-20T00:17:21.351Z,79.81
2023-04-20T00:18:21.341Z,79.81
2023-04-20T00:19:21.344Z,79.81
2023-04-20T00:20:21.331Z,80.02
2023-04-20T00:21:21.303Z,80.02
2023-04-20T00:22:21.312Z,79.91
2023-04-20T00:23:21.291Z,80.12
2023-04-20T00:24:21.262Z,80.12
2023-04-20T00:25:21.286Z,80.22
2023-04-20T00:26:21.257Z,80.33
2023-04-20T00:27:21.245Z,80.33
2023-04-20T00:28:21.216Z,80.43
2023-04-20T00:29:21.195Z,80.12
2023-04-20T00:30:21.185Z,80.22
2023-04-20T00:31:21.283Z,80.22
2023-04-20T00:32:21.206Z,80.22
2023-04-20T00:33:21.147Z,80.22
2023-04-20T00:34:21.131Z,80.12
2023-04-20T00:35:21.118Z,80.02
2023-04-20T00:36:21.122Z,80.12
2023-04-20T00:37:21.094Z,80.12
2023-04-20T00:38:21.085Z,80.02
2023-04-20T00:39:21.070Z,79.91
2023-04-20T00:40:21.064Z,80.02
2023-04-20T00:41:21.066Z,80.12
2023-04-20T00:42:21.028Z,80.02
2023-04-20T00:43:21.045Z,80.02
2023-04-20T00:44:21.006Z,79.91
2023-04-20T00:45:20.988Z,79.81
2023-04-20T00:46:21.076Z,79.60
2023-04-20T00:47:20.985Z,79.71
2023-04-20T00:48:20.955Z,79.91
2023-04-20T00:49:20.935Z,79.71
2023-04-20T00:50:20.926Z,79.81
2023-04-20T00:51:20.927Z,79.81
2023-04-20T00:52:20.899Z,79.91
2023-04-20T00:53:20.886Z,79.91
2023-04-20T00:54:20.873Z,80.02
2023-04-20T00:55:20.875Z,80.02
2023-04-20T00:56:20.861Z,80.02
2023-04-20T00:57:20.837Z,80.02
2023-04-20T00:58:20.825Z,80.02
2023-04-20T00:59:20.837Z,80.22
2023-04-20T01:00:20.842Z,80.33
2023-04-20T01:01:20.786Z,80.33
2023-04-20T01:02:20.811Z,80.33
2023-04-20T01:03:20.865Z,80.22
2023-04-20T01:04:20.842Z,80.33
2023-04-20T01:05:20.752Z,80.33
2023-04-20T01:06:20.741Z,80.33
2023-04-20T01:07:20.710Z,80.22
2023-04-20T01:08:20.697Z,80.33
2023-04-20T01:09:20.703Z,80.43
2023-04-20T01:10:20.671Z,80.43
2023-04-20T01:11:20.668Z,80.33
2023-04-20T01:12:20.663Z,80.43
2023-04-20T01:13:20.633Z,80.54
2023-04-20T01:14:20.630Z,80.43
2023-04-20T01:15:20.628Z,80.54
2023-04-20T01:16:20.663Z,80.43
2023-04-20T01:17:20.653Z,80.22
2023-04-20T01:18:20.571Z,80.19
2023-04-20T01:19:20.613Z,80.19
2023-04-20T01:20:20.563Z,80.08
2023-04-20T01:21:20.546Z,79.88
2023-04-20T01:22:20.522Z,79.88
2023-04-20T01:23:20.504Z,79.88
2023-04-20T01:24:20.500Z,79.88
2023-04-20T01:25:20.491Z,79.98
2023-04-20T01:26:20.483Z,80.08
2023-04-20T01:27:20.496Z,79.98
2023-04-20T01:28:20.441Z,80.08
2023-04-20T01:29:20.431Z,79.98
2023-04-20T01:30:20.444Z,79.98
2023-04-20T01:31:20.456Z,79.77
2023-04-20T01:32:20.400Z,79.63
2023-04-20T01:33:20.382Z,79.53
2023-04-20T01:34:20.364Z,79.63
2023-04-20T01:35:20.360Z,79.53
2023-04-20T01:36:20.361Z,79.22
2023-04-20T01:37:20.331Z,79.12
2023-04-20T01:38:20.312Z,79.12
2023-04-20T01:39:20.453Z,79.08
2023-04-20T01:40:20.301Z,78.88
2023-04-20T01:41:20.292Z,78.88
2023-04-20T01:42:20.273Z,78.77
2023-04-20T01:43:20.253Z,78.67
2023-04-20T01:44:20.241Z,78.67
2023-04-20T01:45:20.228Z,78.56
2023-04-20T01:46:20.282Z,78.56
2023-04-20T01:47:20.225Z,78.53
2023-04-20T01:48:20.197Z,78.32
2023-04-20T01:49:20.180Z,78.22
2023-04-20T01:50:20.179Z,78.11
2023-04-20T01:51:20.184Z,78.11
2023-04-20T01:52:20.139Z,78.42
2023-04-20T01:53:20.130Z,78.22
2023-04-20T01:54:20.111Z,78.11
2023-04-20T01:55:20.300Z,78.01
2023-04-20T01:56:20.119Z,78.01
2023-04-20T01:57:20.074Z,77.91
2023-04-20T01:58:20.063Z,77.67
2023-04-20T01:59:20.087Z,77.67
2023-04-20T02:00:20.044Z,77.46
2023-04-20T02:01:20.081Z,77.25
2023-04-20T02:02:20.144Z,77.04
2023-04-20T02:03:20.186Z,76.84
2023-04-20T02:04:19.986Z,76.84
2023-04-20T02:05:19.974Z,76.84
2023-04-20T02:06:20.103Z,76.90
2023-04-20T02:07:19.963Z,77.04
2023-04-20T02:08:19.937Z,76.94
2023-04-20T02:09:19.946Z,77.15
2023-04-20T02:10:19.914Z,77.25
2023-04-20T02:11:19.934Z,77.36
2023-04-20T02:12:19.891Z,77.46
2023-04-20T02:13:19.881Z,77.67
2023-04-20T02:14:19.852Z,77.77
2023-04-20T02:15:19.906Z,77.67
2023-04-20T02:16:19.848Z,77.56
2023-04-20T02:17:19.870Z,77.56
2023-04-20T02:18:19.804Z,77.46
2023-04-20T02:19:19.883Z,77.46
2023-04-20T02:20:19.791Z,77.56
2023-04-20T02:21:19.753Z,77.36
2023-04-20T02:22:19.756Z,77.46
2023-04-20T02:23:19.728Z,77.56
2023-04-20T02:24:19.718Z,77.46
2023-04-20T02:25:19.704Z,77.56
2023-04-20T02:26:19.691Z,77.77
2023-04-20T02:27:19.691Z,77.87
2023-04-20T02:28:19.662Z,77.98
2023-04-20T02:29:19.886Z,77.77
2023-04-20T02:30:19.650Z,77.77
2023-04-20T02:31:19.675Z,77.81
2023-04-20T02:32:19.651Z,77.81
2023-04-20T02:33:19.597Z,77.67
2023-04-20T02:34:19.579Z,77.67
2023-04-20T02:35:19.589Z,77.67
2023-04-20T02:36:19.566Z,77.70
2023-04-20T02:37:19.564Z,77.77
2023-04-20T02:38:19.536Z,77.87
2023-04-20T02:39:19.786Z,77.87
2023-04-20T02:40:19.517Z,77.87
2023-04-20T02:41:19.500Z,77.98
2023-04-20T02:42:19.493Z,78.08
2023-04-20T02:43:19.464Z,78.08
2023-04-20T02:44:19.451Z,78.39
2023-04-20T02:45:19.434Z,78.59
2023-04-20T02:46:19.433Z,78.59
2023-04-20T02:47:19.504Z,78.70
2023-04-20T02:48:19.404Z,78.91
2023-04-20T02:49:19.580Z,79.22
2023-04-20T02:50:19.376Z,79.42
2023-04-20T02:51:19.388Z,79.63
2023-04-20T02:52:19.369Z,79.73
2023-04-20T02:53:19.335Z,79.83
2023-04-20T02:54:19.331Z,80.18
2023-04-20T02:55:19.312Z,80.39
2023-04-20T02:56:19.298Z,80.60
2023-04-20T02:57:19.299Z,80.80
2023-04-20T02:58:19.285Z,80.90
2023-04-20T02:59:19.522Z,81.11
2023-04-20T03:00:19.246Z,81.11
2023-04-20T03:01:19.232Z,81.32
2023-04-20T03:02:19.371Z,81.42
2023-04-20T03:03:19.337Z,81.52
2023-04-20T03:04:19.311Z,81.63
2023-04-20T03:05:19.181Z,81.84
2023-04-20T03:06:19.176Z,82.04
2023-04-20T03:07:19.312Z,82.35
2023-04-20T03:08:19.141Z,82.35
2023-04-20T03:09:19.286Z,82.45
2023-04-20T03:10:19.115Z,82.56
2023-04-20T03:11:19.108Z,82.56
2023-04-20T03:12:19.124Z,82.66
2023-04-20T03:13:19.076Z,82.66
2023-04-20T03:14:19.065Z,82.66
2023-04-20T03:15:19.058Z,82.76
2023-04-20T03:16:19.059Z,82.97
2023-04-20T03:17:19.023Z,82.97
2023-04-20T03:18:19.030Z,82.93
2023-04-20T03:19:19.137Z,83.18
2023-04-20T03:20:18.986Z,83.07
2023-04-20T03:21:18.968Z,83.07
2023-04-20T03:22:18.953Z,83.04
2023-04-20T03:23:18.978Z,83.04
2023-04-20T03:24:18.929Z,83.34
2023-04-20T03:25:18.918Z,83.34
2023-04-20T03:26:18.902Z,83.25
2023-04-20T03:27:18.888Z,83.34
2023-04-20T03:28:18.890Z,83.34
2023-04-20T03:29:19.030Z,83.45
2023-04-20T03:30:18.846Z,83.65
2023-04-20T03:31:18.850Z,83.76
2023-04-20T03:32:18.824Z,83.86
2023-04-20T03:33:18.824Z,84.07
2023-04-20T03:34:18.791Z,84.28
2023-04-20T03:35:18.800Z,84.38
2023-04-20T03:36:18.778Z,84.48
2023-04-20T03:37:18.787Z,84.59
2023-04-20T03:38:18.752Z,84.79
2023-04-20T03:39:18.907Z,85.00
2023-04-20T03:40:18.733Z,85.00
2023-04-20T03:41:18.715Z,85.10
2023-04-20T03:42:18.684Z,85.10
2023-04-20T03:43:18.688Z,85.21
2023-04-20T03:44:18.657Z,85.31
2023-04-20T03:45:18.649Z,85.52
2023-04-20T03:46:18.741Z,85.83
2023-04-20T03:47:18.631Z,85.93
2023-04-20T03:48:18.618Z,86.03
2023-04-20T03:49:18.748Z,86.03
2023-04-20T03:50:18.583Z,86.13
2023-04-20T03:51:18.571Z,86.24
2023-04-20T03:52:18.563Z,86.34
2023-04-20T03:53:18.575Z,86.55
2023-04-20T03:54:18.546Z,86.65
2023-04-20T03:55:18.532Z,86.55
2023-04-20T03:56:18.505Z,86.44
2023-04-20T03:57:18.488Z,86.24
2023-04-20T03:58:18.486Z,86.44
2023-04-20T03:59:18.633Z,86.34
2023-04-20T04:00:18.465Z,86.24
2023-04-20T04:01:18.436Z,86.38
2023-04-20T04:02:18.562Z,86.24
2023-04-20T04:03:18.710Z,86.13
2023-04-20T04:04:19.011Z,86.34
2023-04-20T04:05:18.409Z,86.34
2023-04-20T04:06:18.363Z,86.34
2023-04-20T04:07:18.358Z,86.44
2023-04-20T04:08:18.353Z,86.24
2023-04-20T04:09:18.577Z,86.24
2023-04-20T04:10:18.405Z,86.18
2023-04-20T04:11:18.324Z,86.13
2023-04-20T04:12:18.293Z,86.38
2023-04-20T04:13:18.289Z,86.38
2023-04-20T04:14:18.263Z,86.44
2023-04-20T04:15:18.248Z,86.65
2023-04-20T04:16:18.238Z,86.55
2023-04-20T04:17:18.225Z,86.44
2023-04-20T04:18:18.236Z,86.55
2023-04-20T04:19:18.524Z,86.55
2023-04-20T04:20:18.180Z,86.55
2023-04-20T04:21:18.185Z,86.65
2023-04-20T04:22:18.156Z,86.76
2023-04-20T04:23:18.164Z,86.86
2023-04-20T04:24:18.140Z,86.86
2023-04-20T04:25:18.127Z,86.76
2023-04-20T04:26:18.102Z,86.86
2023-04-20T04:27:18.113Z,86.96
2023-04-20T04:28:18.108Z,87.07
2023-04-20T04:29:18.471Z,87.17
2023-04-20T04:30:18.049Z,87.31
2023-04-20T04:31:18.063Z,87.41
2023-04-20T04:32:18.028Z,87.62
2023-04-20T04:33:18.035Z,88.04
2023-04-20T04:34:18.031Z,88.20
2023-04-20T04:35:18.039Z,87.99
2023-04-20T04:36:17.980Z,88.24
2023-04-20T04:37:17.978Z,88.45
2023-04-20T04:38:17.978Z,88.20
2023-04-20T04:39:18.208Z,88.24
2023-04-20T04:40:17.927Z,88.45
2023-04-20T04:41:17.911Z,88.34
2023-04-20T04:42:17.906Z,88.20
2023-04-20T04:43:17.920Z,88.34
2023-04-20T04:44:17.878Z,88.20
2023-04-20T04:45:17.864Z,88.10
2023-04-20T04:46:17.915Z,87.89
2023-04-20T04:47:17.836Z,87.79
2023-04-20T04:48:17.832Z,87.79
2023-04-20T04:49:18.085Z,87.89
2023-04-20T04:50:17.832Z,87.68
2023-04-20T04:51:17.788Z,87.79
2023-04-20T04:52:17.763Z,87.79
2023-04-20T04:53:17.773Z,87.79
2023-04-20T04:54:17.739Z,87.79
2023-04-20T04:55:17.733Z,87.68
2023-04-20T04:56:17.709Z,87.89
2023-04-20T04:57:17.724Z,87.89
2023-04-20T04:58:17.685Z,87.89
2023-04-20T04:59:18.048Z,87.68
2023-04-20T05:00:17.721Z,87.68
2023-04-20T05:01:17.649Z,87.58
2023-04-20T05:02:17.682Z,87.48
2023-04-20T05:03:17.819Z,87.58
2023-04-20T05:04:17.663Z,87.48
2023-04-20T05:05:17.588Z,87.34
2023-04-20T05:06:17.575Z,87.13
2023-04-20T05:07:17.561Z,87.02
2023-04-20T05:08:17.553Z,87.02
2023-04-20T05:09:17.792Z,86.92
2023-04-20T05:10:17.528Z,86.82
2023-04-20T05:11:17.509Z,86.71
2023-04-20T05:12:17.513Z,86.78
2023-04-20T05:13:17.485Z,86.68
2023-04-20T05:14:17.494Z,87.29
2023-04-20T05:15:17.483Z,87.40
2023-04-20T05:16:17.513Z,86.88
2023-04-20T05:17:17.516Z,87.19
2023-04-20T05:18:17.418Z,86.57
2023-04-20T05:19:17.643Z,86.43
2023-04-20T05:20:17.389Z,87.26
2023-04-20T05:21:17.389Z,86.84
2023-04-20T05:22:17.368Z,86.43
2023-04-20T05:23:17.364Z,86.02
2023-04-20T05:24:17.351Z,85.91
2023-04-20T05:25:17.335Z,85.81
2023-04-20T05:26:17.315Z,86.39
2023-04-20T05:27:17.291Z,85.57
2023-04-20T05:28:17.279Z,85.87
2023-04-20T05:29:17.583Z,85.57
2023-04-20T05:30:21.471Z,85.57
2023-04-20T05:31:17.276Z,84.43
2023-04-20T05:32:17.230Z,85.05
2023-04-20T05:33:17.268Z,85.36
2023-04-20T05:34:17.218Z,85.77
2023-04-20T05:35:17.191Z,85.22
2023-04-20T05:36:17.186Z,84.91
2023-04-20T05:37:17.174Z,84.91
2023-04-20T05:38:17.174Z,85.01
2023-04-20T05:39:17.382Z,85.01
2023-04-20T05:40:17.120Z,84.91
2023-04-20T05:41:17.118Z,84.70
2023-04-20T05:42:17.098Z,84.35
2023-04-20T05:43:17.160Z,84.14
2023-04-20T05:44:17.115Z,84.25
2023-04-20T05:45:17.061Z,84.14
2023-04-20T05:46:17.103Z,84.05
2023-04-20T05:47:17.149Z,83.84
2023-04-20T05:48:17.016Z,84.08
2023-04-20T05:49:17.223Z,84.14
2023-04-20T05:50:16.998Z,84.25
2023-04-20T05:51:16.987Z,83.87
2023-04-20T05:52:16.962Z,83.98
2023-04-20T05:53:16.966Z,84.64
2023-04-20T05:54:16.959Z,85.15
2023-04-20T05:55:18.937Z,84.94
2023-04-20T05:56:16.969Z,85.25
2023-04-20T05:57:16.901Z,85.25
2023-04-20T05:58:16.912Z,85.05
2023-04-20T05:59:17.103Z,85.15
2023-04-20T06:00:16.886Z,85.50
2023-04-20T06:01:16.852Z,85.60
2023-04-20T06:02:16.962Z,85.91
2023-04-20T06:03:17.119Z,86.02
2023-04-20T06:04:17.112Z,86.02
2023-04-20T06:05:16.833Z,86.53
2023-04-20T06:06:16.945Z,86.74
2023-04-20T06:07:16.781Z,87.15
2023-04-20T06:08:16.753Z,87.29
2023-04-20T06:09:16.941Z,87.29
2023-04-20T06:10:16.768Z,87.50
2023-04-20T06:11:16.717Z,87.92
2023-04-20T06:12:16.712Z,88.22
2023-04-20T06:13:16.695Z,88.64
2023-04-20T06:14:17.234Z,89.11
2023-04-20T06:15:16.719Z,89.22
2023-04-20T06:16:16.732Z,89.32
2023-04-20T06:17:16.645Z,89.32
2023-04-20T06:18:16.628Z,89.25
2023-04-20T06:19:16.927Z,89.22
2023-04-20T06:20:16.640Z,89.52
2023-04-20T06:21:16.589Z,89.67
2023-04-20T06:22:16.586Z,89.52
2023-04-20T06:23:16.572Z,89.52
2023-04-20T06:24:16.564Z,89.73
2023-04-20T06:25:16.549Z,89.73
2023-04-20T06:26:16.528Z,89.52
2023-04-20T06:27:16.507Z,89.48
2023-04-20T06:28:16.497Z,89.38
2023-04-20T06:29:16.558Z,89.28
2023-04-20T06:30:16.491Z,89.07
2023-04-20T06:31:16.479Z,88.76
2023-04-20T06:32:16.438Z,88.65
2023-04-20T06:33:16.431Z,89.07
2023-04-20T06:34:16.411Z,88.86
2023-04-20T06:35:16.472Z,88.72
2023-04-20T06:36:16.385Z,89.13
2023-04-20T06:37:16.373Z,88.82
2023-04-20T06:38:16.365Z,88.72
2023-04-20T06:39:16.499Z,88.62
2023-04-20T06:40:16.488Z,88.68
2023-04-20T06:41:16.325Z,88.26
2023-04-20T06:42:16.317Z,87.71
2023-04-20T06:43:16.298Z,87.40
2023-04-20T06:44:16.277Z,87.19
2023-04-20T06:45:16.281Z,86.95
2023-04-20T06:46:16.275Z,86.54
2023-04-20T06:47:16.246Z,86.23
2023-04-20T06:48:30.816Z,86.23
2023-04-20T06:49:17.593Z,85.92
2023-04-20T06:50:16.217Z,85.41
2023-04-20T06:51:16.247Z,85.30
2023-04-20T06:52:16.182Z,84.75
2023-04-20T06:53:16.171Z,84.54
2023-04-20T06:54:16.168Z,84.91
2023-04-20T06:55:16.185Z,84.61
2023-04-20T06:56:16.125Z,83.99
2023-04-20T06:57:16.111Z,82.82
2023-04-20T06:58:16.096Z,82.34
2023-04-20T06:59:16.420Z,82.79
2023-04-20T07:00:16.083Z,82.55
2023-04-20T07:01:16.075Z,82.00
2023-04-20T07:02:16.194Z,81.27
2023-04-20T07:03:16.282Z,77.84
2023-04-20T07:04:16.083Z,76.40
2023-04-20T07:05:16.045Z,75.89
2023-04-20T07:06:15.989Z,75.93
2023-04-20T07:07:16.001Z,76.89
2023-04-20T07:08:16.291Z,76.99
2023-04-20T07:09:16.148Z,76.99
2023-04-20T07:10:15.980Z,77.50
2023-04-20T07:11:15.947Z,78.02
2023-04-20T07:12:15.912Z,78.32
2023-04-20T07:13:15.901Z,78.77
2023-04-20T07:14:15.903Z,79.38
2023-04-20T07:15:15.867Z,79.28
2023-04-20T07:16:15.882Z,78.87
2023-04-20T07:17:15.846Z,78.77
2023-04-20T07:18:15.840Z,79.08
2023-04-20T07:19:16.077Z,79.24
2023-04-20T07:20:15.834Z,78.90
2023-04-20T07:21:15.794Z,77.02
2023-04-20T07:22:15.785Z,76.17
2023-04-20T07:23:15.796Z,75.52
2023-04-20T07:24:15.761Z,74.76
2023-04-20T07:25:15.745Z,73.64
2023-04-20T07:26:15.746Z,71.43
2023-04-20T07:27:15.719Z,71.22
2023-04-20T07:28:15.697Z,69.93
2023-04-20T07:29:15.929Z,68.92
2023-04-20T07:30:15.672Z,66.41
2023-04-20T07:31:15.850Z,62.63
2023-04-20T07:32:15.754Z,62.53
2023-04-20T07:33:15.631Z,60.99
2023-04-20T07:34:15.736Z,62.85
2023-04-20T07:35:15.633Z,63.36
2023-04-20T07:36:15.605Z,62.45
2023-04-20T07:37:15.594Z,62.48
2023-04-20T07:38:15.570Z,63.09
2023-04-20T07:39:15.866Z,63.59
2023-04-20T07:40:15.573Z,62.14
2023-04-20T07:41:15.532Z,60.78
2023-04-20T07:42:15.551Z,58.20
2023-04-20T07:43:15.501Z,55.34
2023-04-20T07:44:15.501Z,53.30
2023-04-20T07:45:15.501Z,53.09
2023-04-20T07:46:15.507Z,57.95
2023-04-20T07:47:15.475Z,60.16
2023-04-20T07:48:15.451Z,59.57
2023-04-20T07:49:15.625Z,59.47
2023-04-20T07:50:15.431Z,58.65
2023-04-20T07:51:15.407Z,57.51
2023-04-20T07:52:17.222Z,58.40
2023-04-20T07:53:15.373Z,58.38
2023-04-20T07:54:15.358Z,58.78
2023-04-20T07:55:15.385Z,56.74
2023-04-20T07:56:15.335Z,55.80
2023-04-20T07:57:15.362Z,58.20
2023-04-20T07:58:15.304Z,57.23
2023-04-20T07:59:15.421Z,56.09
2023-04-20T08:00:15.299Z,55.47
2023-04-20T08:01:15.262Z,54.86
2023-04-20T08:02:15.291Z,54.08
2023-04-20T08:03:15.538Z,51.89
2023-04-20T08:04:15.502Z,50.90
2023-04-20T08:05:15.539Z,48.71
2023-04-20T08:06:15.200Z,49.27
2023-04-20T08:07:15.184Z,48.01
2023-04-20T08:08:15.176Z,47.59
2023-04-20T08:09:15.399Z,49.61
2023-04-20T08:10:15.165Z,51.20
2023-04-20T08:11:15.150Z,52.64
2023-04-20T08:12:15.122Z,52.51
2023-04-20T08:13:15.105Z,51.05
2023-04-20T08:14:15.174Z,52.66
2023-04-20T08:15:15.096Z,52.79
2023-04-20T08:16:15.111Z,52.66
2023-04-20T08:17:15.049Z,52.06
2023-04-20T08:18:15.037Z,52.79
2023-04-20T08:20:15.026Z,52.14
2023-04-20T08:21:14.996Z,50.30
2023-04-20T08:22:14.989Z,50.69
2023-04-20T08:23:14.980Z,50.87
2023-04-20T08:24:14.958Z,52.99
2023-04-20T08:25:14.977Z,53.12
2023-04-20T08:26:14.957Z,52.06
2023-04-20T08:27:14.949Z,49.90
2023-04-20T08:28:29.423Z,47.77
2023-04-20T08:29:14.894Z,45.77
2023-04-20T08:30:14.882Z,45.06
2023-04-20T08:31:14.898Z,45.17
2023-04-20T08:32:14.851Z,44.54
2023-04-20T08:33:14.871Z,43.02
2023-04-20T08:34:14.833Z,44.24
2023-04-20T08:35:14.880Z,42.63
2023-04-20T08:36:14.815Z,44.85
2023-04-20T08:37:14.790Z,45.78
2023-04-20T08:38:18.078Z,45.47
2023-04-20T08:39:14.759Z,47.45
2023-04-20T08:40:14.749Z,47.11
2023-04-20T08:41:14.746Z,46.31
2023-04-20T08:42:14.726Z,44.46
2023-04-20T08:43:14.823Z,44.35
2023-04-20T08:44:14.778Z,46.15
2023-04-20T08:45:14.680Z,45.29
2023-04-20T08:46:14.713Z,43.54
2023-04-20T08:47:14.676Z,44.12
2023-04-20T08:48:14.643Z,45.09
2023-04-20T08:49:14.629Z,46.25
2023-04-20T08:50:14.614Z,47.95
2023-04-20T08:51:14.628Z,49.43
2023-04-20T08:52:14.590Z,51.45
2023-04-20T08:53:14.578Z,53.93
2023-04-20T08:54:14.683Z,56.34
2023-04-20T08:55:14.551Z,56.32
2023-04-20T08:56:14.556Z,58.33
2023-04-20T08:57:14.528Z,58.38
2023-04-20T08:58:14.561Z,56.26
2023-04-20T08:59:14.563Z,54.74
2023-04-20T09:00:14.515Z,56.70
2023-04-20T09:01:17.734Z,57.98
2023-04-20T09:02:14.605Z,57.72
2023-04-20T09:03:14.772Z,57.47
2023-04-20T09:04:14.751Z,59.10
2023-04-20T09:05:14.446Z,59.23
2023-04-20T09:06:14.484Z,59.53
2023-04-20T09:07:14.433Z,58.80
2023-04-20T09:08:14.378Z,57.52
2023-04-20T09:09:14.373Z,57.23
2023-04-20T09:10:14.375Z,55.91
2023-04-20T09:11:14.361Z,53.22
2023-04-20T09:12:14.342Z,49.82
2023-04-20T09:13:14.308Z,46.91
2023-04-20T09:14:14.361Z,48.65
2023-04-20T09:15:14.310Z,47.09
2023-04-20T09:16:14.312Z,48.03
2023-04-20T09:17:14.393Z,50.99
2023-04-20T09:18:14.284Z,50.84
2023-04-20T09:19:14.234Z,50.07
2023-04-20T09:20:14.246Z,48.72
2023-04-20T09:21:14.234Z,53.14
2023-04-20T09:22:14.196Z,53.37
2023-04-20T09:23:14.186Z,51.68
2023-04-20T09:24:14.308Z,50.52
2023-04-20T09:25:14.156Z,49.94
2023-04-20T09:26:14.150Z,48.45
2023-04-20T09:27:14.146Z,50.77
2023-04-20T09:28:14.145Z,52.46
2023-04-20T09:29:14.096Z,50.89
2023-04-20T09:30:14.096Z,53.47
2023-04-20T09:31:15.127Z,54.28
2023-04-20T09:32:14.117Z,56.09
2023-04-20T09:33:14.046Z,58.07
2023-04-20T09:34:14.066Z,53.83
2023-04-20T09:35:14.016Z,52.54
2023-04-20T09:36:14.007Z,52.31
2023-04-20T09:37:14.010Z,49.72
2023-04-20T09:38:13.978Z,46.88
2023-04-20T09:39:13.965Z,44.38
2023-04-20T09:40:13.953Z,43.32
2023-04-20T09:41:13.952Z,43.50
2023-04-20T09:42:13.960Z,41.96
2023-04-20T09:43:15.392Z,43.80
2023-04-20T09:44:13.911Z,45.53
2023-04-20T09:45:13.918Z,43.36
2023-04-20T09:46:13.940Z,42.76
2023-04-20T09:47:13.884Z,44.35
2023-04-20T09:48:13.848Z,44.95
2023-04-20T09:49:13.874Z,42.91
2023-04-20T09:50:24.716Z,40.33
2023-04-20T09:51:13.818Z,40.75
2023-04-20T09:52:13.809Z,39.91
2023-04-20T09:53:13.794Z,43.91
2023-04-20T09:54:13.785Z,47.81
2023-04-20T09:55:13.756Z,51.07
2023-04-20T09:56:13.764Z,51.55
2023-04-20T09:57:13.744Z,50.79
2023-04-20T09:58:13.728Z,49.73
2023-04-20T09:59:13.707Z,48.18
2023-04-20T10:00:13.692Z,45.59
2023-04-20T10:01:13.756Z,45.06
2023-04-20T10:02:13.812Z,46.37
2023-04-20T10:03:13.991Z,45.50
2023-04-20T10:04:13.785Z,42.94
2023-04-20T10:05:13.629Z,43.30
2023-04-20T10:06:13.628Z,44.35
2023-04-20T10:07:13.605Z,47.95
2023-04-20T10:08:13.633Z,46.41
2023-04-20T10:09:13.580Z,48.14
2023-04-20T10:10:13.581Z,49.32
2023-04-20T10:11:13.582Z,50.58
2023-04-20T10:12:13.535Z,53.34
2023-04-20T10:13:13.533Z,53.57
2023-04-20T10:14:13.513Z,52.91
2023-04-20T10:15:13.497Z,51.85
2023-04-20T10:16:13.528Z,50.89
2023-04-20T10:17:13.529Z,49.66
2023-04-20T10:18:13.545Z,47.30
2023-04-20T10:19:13.483Z,44.23
2023-04-20T10:20:13.436Z,42.86
2023-04-20T10:21:13.418Z,43.59
2023-04-20T10:22:13.437Z,44.15
2023-04-20T10:23:13.401Z,42.66
2023-04-20T10:24:13.379Z,40.95
2023-04-20T10:25:13.359Z,40.87
2023-04-20T10:26:13.352Z,39.41
2023-04-20T10:27:13.364Z,39.61
2023-04-20T10:28:13.331Z,40.29
2023-04-20T10:29:13.320Z,41.69
2023-04-20T10:30:13.301Z,42.13
2023-04-20T10:31:13.548Z,44.46
2023-04-20T10:32:13.297Z,46.70
2023-04-20T10:33:13.533Z,47.30
2023-04-20T10:34:13.253Z,47.97
2023-04-20T10:35:13.272Z,50.32
2023-04-20T10:36:13.226Z,53.78
2023-04-20T10:37:13.245Z,54.36
2023-04-20T10:38:13.204Z,52.56
2023-04-20T10:39:13.181Z,50.81
2023-04-20T10:40:13.177Z,51.11
2023-04-20T10:41:13.183Z,50.56
2023-04-20T10:42:13.467Z,50.73
2023-04-20T10:43:13.132Z,52.10
2023-04-20T10:44:13.117Z,52.63
2023-04-20T10:45:13.106Z,52.98
2023-04-20T10:46:13.124Z,53.27
2023-04-20T10:47:13.100Z,53.27
2023-04-20T10:48:13.070Z,54.03
2023-04-20T10:49:13.051Z,53.80
2023-04-20T10:50:13.051Z,54.24
2023-04-20T10:51:13.067Z,54.74
2023-04-20T10:52:13.047Z,53.70
2023-04-20T10:53:12.993Z,53.27
2023-04-20T10:54:12.984Z,53.27
2023-04-20T10:55:12.967Z,52.76
2023-04-20T10:56:12.971Z,52.94
2023-04-20T10:57:12.973Z,52.33
2023-04-20T10:58:12.928Z,52.94
2023-04-20T10:59:13.477Z,52.81
2023-04-20T11:00:12.900Z,52.17
2023-04-20T11:01:12.888Z,52.50
2023-04-20T11:02:12.982Z,53.11
2023-04-20T11:03:12.958Z,52.71
2023-04-20T11:04:12.879Z,53.09
2023-04-20T11:05:13.010Z,52.89
2023-04-20T11:06:12.867Z,52.96
2023-04-20T11:07:12.968Z,52.08
2023-04-20T11:08:12.797Z,52.17
2023-04-20T11:09:12.781Z,51.54
2023-04-20T11:10:12.769Z,51.36
2023-04-20T11:11:12.762Z,52.53
2023-04-20T11:12:12.770Z,52.76
2023-04-20T11:13:12.742Z,53.47
2023-04-20T11:14:12.728Z,53.37
2023-04-20T11:15:12.705Z,53.44
2023-04-20T11:16:12.740Z,52.98
2023-04-20T11:17:12.730Z,52.03
2023-04-20T11:18:12.723Z,51.64
2023-04-20T11:19:12.652Z,51.95
2023-04-20T11:20:12.676Z,52.45
2023-04-20T11:21:12.635Z,52.12
2023-04-20T11:22:12.611Z,50.88
2023-04-20T11:23:12.643Z,51.06
2023-04-20T11:24:12.587Z,51.79
2023-04-20T11:25:12.781Z,50.43
2023-04-20T11:26:12.558Z,48.26
2023-04-20T11:27:12.539Z,47.55
2023-04-20T11:28:12.554Z,49.11
2023-04-20T11:29:12.538Z,49.19
2023-04-20T11:30:12.546Z,47.41
2023-04-20T11:31:12.557Z,46.78
2023-04-20T11:32:12.590Z,45.77
2023-04-20T11:33:12.791Z,47.53
2023-04-20T11:34:12.448Z,45.03
2023-04-20T11:35:12.433Z,47.15
2023-04-20T11:36:12.419Z,45.48
2023-04-20T11:37:12.422Z,43.16
2023-04-20T11:38:12.407Z,41.63
2023-04-20T11:39:12.457Z,42.25
2023-04-20T11:40:12.378Z,41.71
2023-04-20T11:41:12.359Z,44.27
2023-04-20T11:42:12.342Z,46.67
2023-04-20T11:43:12.347Z,47.05
2023-04-20T11:44:12.324Z,46.52
2023-04-20T11:45:12.302Z,46.95
2023-04-20T11:46:12.304Z,47.45
2023-04-20T11:47:12.282Z,47.75
2023-04-20T11:48:12.276Z,46.95
2023-04-20T11:49:12.260Z,48.03
2023-04-20T11:50:12.240Z,48.51
2023-04-20T11:51:12.227Z,48.18
2023-04-20T11:52:12.206Z,47.86
2023-04-20T11:53:12.211Z,45.25
2023-04-20T11:54:12.180Z,43.82
2023-04-20T11:55:12.240Z,41.29
2023-04-20T11:56:12.163Z,40.59
2023-04-20T11:57:12.183Z,39.31
2023-04-20T11:58:12.155Z,39.84
2023-04-20T11:59:12.114Z,40.06
2023-04-20T12:00:12.105Z,40.73
2023-04-20T12:01:12.092Z,41.63
2023-04-20T12:02:12.174Z,43.75
2023-04-20T12:03:12.205Z,45.47
2023-04-20T12:04:12.231Z,45.67
2023-04-20T12:05:12.202Z,44.78
2023-04-20T12:06:12.018Z,43.22
2023-04-20T12:07:12.007Z,43.51
2023-04-20T12:08:12.006Z,44.51
2023-04-20T12:09:11.984Z,44.62
2023-04-20T12:10:11.970Z,45.57
2023-04-20T12:11:11.984Z,45.89
2023-04-20T12:12:11.950Z,45.87
2023-04-20T12:13:11.945Z,48.30
2023-04-20T12:14:11.934Z,48.40
2023-04-20T12:15:11.899Z,47.87
2023-04-20T12:16:12.061Z,48.35
2023-04-20T12:17:11.881Z,47.95
2023-04-20T12:18:11.935Z,49.46
2023-04-20T12:19:11.847Z,50.50
2023-04-20T12:20:11.841Z,50.37
2023-04-20T12:21:11.830Z,50.29
2023-04-20T12:22:11.807Z,51.06
2023-04-20T12:23:11.838Z,51.23
2023-04-20T12:24:11.781Z,51.11
2023-04-20T12:25:11.768Z,50.68
2023-04-20T12:26:11.772Z,50.68
2023-04-20T12:27:11.766Z,49.48
2023-04-20T12:28:11.741Z,50.73
2023-04-20T12:29:11.715Z,50.60
2023-04-20T12:30:11.714Z,50.17
2023-04-20T12:31:11.766Z,50.37
2023-04-20T12:32:11.673Z,50.07
2023-04-20T12:33:11.690Z,49.97
2023-04-20T12:34:11.644Z,50.65
2023-04-20T12:35:11.635Z,51.87
2023-04-20T12:36:11.625Z,51.59
2023-04-20T12:37:11.610Z,52.02
2023-04-20T12:38:13.988Z,52.12
2023-04-20T12:39:11.594Z,52.53
2023-04-20T12:40:11.604Z,53.34
2023-04-20T12:41:11.552Z,52.48
2023-04-20T12:42:11.585Z,51.75
2023-04-20T12:43:11.550Z,53.59
2023-04-20T12:44:11.659Z,54.31
2023-04-20T12:45:11.529Z,55.00
2023-04-20T12:46:11.539Z,54.36
2023-04-20T12:47:11.498Z,52.96
2023-04-20T12:48:11.502Z,53.70
2023-04-20T12:49:11.478Z,53.09
2023-04-20T12:50:11.494Z,53.55
2023-04-20T12:51:11.419Z,52.58
2023-04-20T12:52:11.416Z,51.82
2023-04-20T12:53:11.399Z,50.66